Terminal Aerodrome Forecast
Issued by NWS Louisville, KY

Home | Current Version | Previous Version | Text Only | Print | Product List | Glossary On
Versions: 1 2 3 4 5 6 7 8 9 10 11 12 13
000
FTUS43 KLMK 160351 AAA
TAFLEX
TAF AMD
KLEX 160351Z 1604/1624 33009KT P6SM BKN025
     FM161000 34006KT P6SM SCT025
     FM161800 33008KT P6SM SCT030
     FM162300 36005KT P6SM FEW150=

USA.gov is the U.S. government's official web portal to all federal, state and local government web resources and services.